Nezperce, ID

6:45 PM PDT on October 24, 2014 (GMT -0700)
Lowell | Change Station
CLOSE
Current Station
Airport
Location: Lowell,
Elevation: 1480 ft
Nearby Weather Stations

Elev 1480 ft 46.14 °N, 115.60 °W | Updated 53 minutes ago

Rain
Rain
51 °F
Feels Like 51 °F
N
4
Wind Variable Wind from NNW
Gusts 5 mph

Today
High -- | Low -- °F
--% Chance of Precip.
Yesterday
High -- | Low -- °F
Precip. -- in
7:14 AM 5:42 PM
New Moon, 1% visible
Pressure 30.06 in
Visibility -9999.0 miles
Clouds
Dew Point 50 °F
Humidity 96%
Rainfall 0.33 in
Snow Depth Not available.
UV Not available.
Pollen .80 out of 12
PM2.5 Good
Flu Activity No Activity
METAR KP69 250052Z AUTO 33003KT 11/10 A3005 RMK AO1 SLP177 T01060100

More Conditions Fewer Conditions

Pressure 30.06 in
Visibility -9999.0 miles
Clouds
Dew Point 50 °F
Humidity 96%
Rainfall 0.33 in
Snow Depth Not available.
UV Not available.
Pollen .80 out of 12
PM2.5 Good
Flu Activity No Activity
METAR KP69 250052Z AUTO 33003KT 11/10 A3005 RMK AO1 SLP177 T01060100

More Conditions Fewer Conditions

10-Day Weather Forecast

Almanac

Astronomy

Oct. 24, 2014 Rise Set
Actual Time 7:14 AM PDT 5:42 PM PDT
Civil Twilight 6:43 AM PDT 6:13 PM PDT
Nautical Twilight 6:08 AM PDT 6:48 PM PDT
Astronomical Twilight 5:34 AM PDT 7:23 PM PDT
Moon 8:00 AM PDT (10/24) 6:22 PM PDT (10/24)
Length of Visible Light 11h 29m
Length of Day
10h 28m
Tomorrow will be 3m 3s shorter.
New Moon, 1% of the Moon is Illuminated
Today
New Moon
Oct 30
First Quarter
Nov 6
Full
Nov 14
Last Quarter
Nov 22
New

Today's Extremes

State Highs State Lows

Community

WunderPhotos

Upload Photos

1,764,749 photos uploaded!

WunderBlogs® & News

Nearby

Air Quality

  Air Quality AQ Index Pollutant
Yesterday Good
PM2.5
Current Good
PM2.5
Friday Good
PM2.5
Saturday Good
PM2.5
Sunday Good
PM2.5
Monday Good
PM2.5

Snow Depth

Station Depth Elevation
Shanghi Summit 0 in 4570 ft
Hemlock Butte 1 in 5810 ft
Elk Butte 0 in 5690 ft
Moscow Mountain 0 in 4700 ft
Sherwin 0 in 3200 ft

Earthquake Activity

City Distance Mag. Time & Date
No recent earthquake activity has been reported nearby.
Minimum magnitude displayed is 2.5.

Coastal Water Temperatures

Place Temperature
No Stations Reporting

Nearby Weather Stations